sensor_id;sensor_type;location;lat;lon;timestamp;pressure;altitude;pressure_sealevel;temperature;humidity
46347;BME280;32057;47.830;19.046;2023-05-20T00:00:34;100668.03;;;13.37;100.00
46347;BME280;32057;47.830;19.046;2023-05-20T00:03:00;100666.31;;;13.39;100.00
46347;BME280;32057;47.830;19.046;2023-05-20T00:05:25;100670.75;;;13.43;100.00
46347;BME280;32057;47.830;19.046;2023-05-20T00:07:51;100670.69;;;13.38;100.00
46347;BME280;32057;47.830;19.046;2023-05-20T00:10:16;100670.69;;;13.40;100.00
46347;BME280;32057;47.830;19.046;2023-05-20T00:12:42;100667.22;;;13.41;100.00
46347;BME280;32057;47.830;19.046;2023-05-20T00:15:08;100661.19;;;13.45;100.00
46347;BME280;32057;47.830;19.046;2023-05-20T00:17:33;100651.50;;;13.36;100.00
46347;BME280;32057;47.830;19.046;2023-05-20T00:19:59;100662.78;;;13.35;100.00
46347;BME280;32057;47.830;19.046;2023-05-20T00:22:27;100656.69;;;13.34;100.00
46347;BME280;32057;47.830;19.046;2023-05-20T00:24:52;100663.66;;;13.35;100.00
46347;BME280;32057;47.830;19.046;2023-05-20T00:27:17;100654.13;;;13.39;100.00
46347;BME280;32057;47.830;19.046;2023-05-20T00:29:43;100660.22;;;13.40;100.00
46347;BME280;32057;47.830;19.046;2023-05-20T00:32:08;100660.88;;;13.28;100.00
46347;BME280;32057;47.830;19.046;2023-05-20T00:34:34;100663.66;;;13.35;100.00
46347;BME280;32057;47.830;19.046;2023-05-20T00:36:59;100654.09;;;13.36;100.00
46347;BME280;32057;47.830;19.046;2023-05-20T00:39:25;100649.69;;;13.33;100.00
46347;BME280;32057;47.830;19.046;2023-05-20T00:41:50;100645.41;;;13.39;100.00
46347;BME280;32057;47.830;19.046;2023-05-20T00:44:16;100646.53;;;13.56;100.00
46347;BME280;32057;47.830;19.046;2023-05-20T00:46:43;100646.38;;;13.45;100.00
46347;BME280;32057;47.830;19.046;2023-05-20T00:49:09;100644.31;;;13.24;100.00
46347;BME280;32057;47.830;19.046;2023-05-20T00:51:37;100640.00;;;13.26;100.00
46347;BME280;32057;47.830;19.046;2023-05-20T00:54:03;100639.28;;;13.37;100.00
46347;BME280;32057;47.830;19.046;2023-05-20T00:56:28;100641.09;;;13.41;100.00
46347;BME280;32057;47.830;19.046;2023-05-20T00:58:54;100637.75;;;13.52;100.00
46347;BME280;32057;47.830;19.046;2023-05-20T01:01:20;100637.78;;;13.54;100.00
46347;BME280;32057;47.830;19.046;2023-05-20T01:03:46;100635.25;;;13.60;100.00
46347;BME280;32057;47.830;19.046;2023-05-20T01:06:12;100637.97;;;13.69;100.00
46347;BME280;32057;47.830;19.046;2023-05-20T01:08:38;100644.25;;;13.85;100.00
46347;BME280;32057;47.830;19.046;2023-05-20T01:11:10;100642.69;;;13.98;100.00
46347;BME280;32057;47.830;19.046;2023-05-20T01:13:46;100638.38;;;14.05;100.00
46347;BME280;32057;47.830;19.046;2023-05-20T01:16:16;100647.03;;;13.96;100.00
46347;BME280;32057;47.830;19.046;2023-05-20T01:18:42;100646.06;;;13.89;100.00
46347;BME280;32057;47.830;19.046;2023-05-20T01:21:12;100654.75;;;13.87;100.00
46347;BME280;32057;47.830;19.046;2023-05-20T01:23:40;100652.97;;;13.84;100.00
46347;BME280;32057;47.830;19.046;2023-05-20T01:26:07;100652.03;;;13.79;100.00
46347;BME280;32057;47.830;19.046;2023-05-20T01:28:35;100653.72;;;13.72;100.00
46347;BME280;32057;47.830;19.046;2023-05-20T01:31:04;100647.59;;;13.73;100.00
46347;BME280;32057;47.830;19.046;2023-05-20T01:33:30;100647.59;;;13.73;100.00
46347;BME280;32057;47.830;19.046;2023-05-20T01:35:58;100646.78;;;13.76;100.00
46347;BME280;32057;47.830;19.046;2023-05-20T01:38:25;100643.31;;;13.79;100.00
46347;BME280;32057;47.830;19.046;2023-05-20T01:40:52;100649.47;;;13.82;100.00
46347;BME280;32057;47.830;19.046;2023-05-20T01:43:19;100652.13;;;13.87;100.00
46347;BME280;32057;47.830;19.046;2023-05-20T01:45:45;100654.72;;;13.85;100.00
46347;BME280;32057;47.830;19.046;2023-05-20T01:48:11;100646.84;;;13.84;100.00
46347;BME280;32057;47.830;19.046;2023-05-20T01:50:37;100646.03;;;13.86;100.00
46347;BME280;32057;47.830;19.046;2023-05-20T01:53:02;100645.97;;;13.83;100.00
46347;BME280;32057;47.830;19.046;2023-05-20T01:55:28;100645.97;;;13.80;100.00
46347;BME280;32057;47.830;19.046;2023-05-20T01:57:53;100646.78;;;13.76;100.00
46347;BME280;32057;47.830;19.046;2023-05-20T02:00:19;100644.06;;;13.68;100.00
46347;BME280;32057;47.830;19.046;2023-05-20T02:02:45;100644.88;;;13.66;100.00
46347;BME280;32057;47.830;19.046;2023-05-20T02:05:10;100643.91;;;13.58;100.00
46347;BME280;32057;47.830;19.046;2023-05-20T02:07:35;100650.88;;;13.57;100.00
46347;BME280;32057;47.830;19.046;2023-05-20T02:10:01;100657.72;;;13.47;100.00
46347;BME280;32057;47.830;19.046;2023-05-20T02:12:26;100657.72;;;13.47;100.00
46347;BME280;32057;47.830;19.046;2023-05-20T02:14:52;100660.22;;;13.40;100.00
46347;BME280;32057;47.830;19.046;2023-05-20T02:17:17;100668.88;;;13.35;100.00
46347;BME280;32057;47.830;19.046;2023-05-20T02:19:44;100669.72;;;13.33;100.00
46347;BME280;32057;47.830;19.046;2023-05-20T02:22:10;100672.31;;;13.31;100.00
46347;BME280;32057;47.830;19.046;2023-05-20T02:24:35;100671.41;;;13.29;100.00
46347;BME280;32057;47.830;19.046;2023-05-20T02:27:01;100669.63;;;13.28;100.00
46347;BME280;32057;47.830;19.046;2023-05-20T02:29:27;100678.41;;;13.30;100.00
46347;BME280;32057;47.830;19.046;2023-05-20T02:31:53;100673.09;;;13.27;100.00
46347;BME280;32057;47.830;19.046;2023-05-20T02:34:19;100666.97;;;13.25;100.00
46347;BME280;32057;47.830;19.046;2023-05-20T02:36:44;100656.38;;;13.16;100.00
46347;BME280;32057;47.830;19.046;2023-05-20T02:39:10;100655.41;;;13.09;100.00
46347;BME280;32057;47.830;19.046;2023-05-20T02:41:36;100655.38;;;13.06;100.00
46347;BME280;32057;47.830;19.046;2023-05-20T02:44:02;100653.50;;;12.99;100.00
46347;BME280;32057;47.830;19.046;2023-05-20T02:46:27;100656.88;;;12.90;100.00
46347;BME280;32057;47.830;19.046;2023-05-20T02:48:53;100664.81;;;13.00;100.00
46347;BME280;32057;47.830;19.046;2023-05-20T02:51:18;100659.78;;;13.12;100.00
46347;BME280;32057;47.830;19.046;2023-05-20T02:53:44;100651.25;;;13.22;100.00
46347;BME280;32057;47.830;19.046;2023-05-20T02:56:10;100648.94;;;13.41;100.00
46347;BME280;32057;47.830;19.046;2023-05-20T02:58:35;100657.00;;;13.56;100.00
46347;BME280;32057;47.830;19.046;2023-05-20T03:01:02;100658.88;;;13.66;100.00
46347;BME280;32057;47.830;19.046;2023-05-20T03:03:27;100658.09;;;13.75;100.00
46347;BME280;32057;47.830;19.046;2023-05-20T03:05:53;100660.81;;;13.86;100.00
46347;BME280;32057;47.830;19.046;2023-05-20T03:08:21;100661.81;;;13.94;100.00
46347;BME280;32057;47.830;19.046;2023-05-20T03:10:47;100667.97;;;13.99;100.00
46347;BME280;32057;47.830;19.046;2023-05-20T03:13:12;100661.88;;;14.02;100.00
46347;BME280;32057;47.830;19.046;2023-05-20T03:15:40;100661.03;;;14.01;100.00
46347;BME280;32057;47.830;19.046;2023-05-20T03:18:06;100666.31;;;14.04;100.00
46347;BME280;32057;47.830;19.046;2023-05-20T03:20:35;100659.38;;;14.09;100.00
46347;BME280;32057;47.830;19.046;2023-05-20T03:23:01;100661.13;;;14.10;100.00
46347;BME280;32057;47.830;19.046;2023-05-20T03:25:27;100668.16;;;14.14;100.00
46347;BME280;32057;47.830;19.046;2023-05-20T03:27:53;100673.44;;;14.19;100.00
46347;BME280;32057;47.830;19.046;2023-05-20T03:30:18;100669.06;;;14.17;100.00
46347;BME280;32057;47.830;19.046;2023-05-20T03:32:44;100669.94;;;14.19;100.00
46347;BME280;32057;47.830;19.046;2023-05-20T03:35:09;100683.94;;;14.21;100.00
46347;BME280;32057;47.830;19.046;2023-05-20T03:37:35;100687.47;;;14.26;100.00
46347;BME280;32057;47.830;19.046;2023-05-20T03:40:01;100695.34;;;14.29;100.00
46347;BME280;32057;47.830;19.046;2023-05-20T03:42:30;100694.50;;;14.30;100.00
46347;BME280;32057;47.830;19.046;2023-05-20T03:44:56;100694.41;;;14.21;100.00
46347;BME280;32057;47.830;19.046;2023-05-20T03:47:22;100694.41;;;14.24;100.00
46347;BME280;32057;47.830;19.046;2023-05-20T03:49:47;100690.97;;;14.26;100.00
46347;BME280;32057;47.830;19.046;2023-05-20T03:52:12;100695.34;;;14.29;100.00
46347;BME280;32057;47.830;19.046;2023-05-20T03:54:38;100699.66;;;14.24;100.00
46347;BME280;32057;47.830;19.046;2023-05-20T03:57:03;100696.19;;;14.25;100.00
46347;BME280;32057;47.830;19.046;2023-05-20T03:59:29;100694.47;;;14.27;100.00
46347;BME280;32057;47.830;19.046;2023-05-20T04:01:54;100701.47;;;14.28;100.00
46347;BME280;32057;47.830;19.046;2023-05-20T04:04:21;100707.56;;;14.28;100.00
46347;BME280;32057;47.830;19.046;2023-05-20T04:06:46;100699.75;;;14.33;100.00
46347;BME280;32057;47.830;19.046;2023-05-20T04:09:11;100700.72;;;14.38;100.00
46347;BME280;32057;47.830;19.046;2023-05-20T04:11:37;100705.09;;;14.41;100.00
46347;BME280;32057;47.830;19.046;2023-05-20T04:14:03;100698.16;;;14.47;100.00
46347;BME280;32057;47.830;19.046;2023-05-20T04:16:28;100699.16;;;14.57;100.00
46347;BME280;32057;47.830;19.046;2023-05-20T04:18:54;100705.31;;;14.61;100.00
46347;BME280;32057;47.830;19.046;2023-05-20T04:21:20;100708.00;;;14.67;100.00
46347;BME280;32057;47.830;19.046;2023-05-20T04:23:45;100711.56;;;14.75;100.00
46347;BME280;32057;47.830;19.046;2023-05-20T04:26:11;100702.94;;;14.84;100.00
46347;BME280;32057;47.830;19.046;2023-05-20T04:28:37;100709.09;;;14.90;100.00
46347;BME280;32057;47.830;19.046;2023-05-20T04:31:03;100704.75;;;14.96;100.00
46347;BME280;32057;47.830;19.046;2023-05-20T04:33:29;100706.56;;;15.03;100.00
46347;BME280;32057;47.830;19.046;2023-05-20T04:35:57;100704.91;;;15.12;100.00
46347;BME280;32057;47.830;19.046;2023-05-20T04:38:26;100712.78;;;15.17;100.00
46347;BME280;32057;47.830;19.046;2023-05-20T04:40:58;100710.22;;;15.25;100.00
46347;BME280;32057;47.830;19.046;2023-05-20T04:43:24;100698.03;;;15.31;100.00
46347;BME280;32057;47.830;19.046;2023-05-20T04:45:50;100709.47;;;15.40;100.00
46347;BME280;32057;47.830;19.046;2023-05-20T04:48:17;100694.63;;;15.42;100.00
46347;BME280;32057;47.830;19.046;2023-05-20T04:50:43;100702.50;;;15.45;100.00
46347;BME280;32057;47.830;19.046;2023-05-20T04:53:10;100699.91;;;15.48;100.00
46347;BME280;32057;47.830;19.046;2023-05-20T04:55:35;100705.19;;;15.54;100.00
46347;BME280;32057;47.830;19.046;2023-05-20T04:58:01;100702.59;;;15.60;100.00
46347;BME280;32057;47.830;19.046;2023-05-20T05:00:27;100702.59;;;15.63;100.00
46347;BME280;32057;47.830;19.046;2023-05-20T05:02:53;100704.44;;;15.73;100.00
46347;BME280;32057;47.830;19.046;2023-05-20T05:05:18;100699.25;;;15.80;100.00
46347;BME280;32057;47.830;19.046;2023-05-20T05:07:43;100708.00;;;15.85;100.00
46347;BME280;32057;47.830;19.046;2023-05-20T05:10:10;100713.28;;;15.91;100.00
46347;BME280;32057;47.830;19.046;2023-05-20T05:12:36;100710.69;;;16.03;100.00
46347;BME280;32057;47.830;19.046;2023-05-20T05:15:02;100716.84;;;16.11;100.00
46347;BME280;32057;47.830;19.046;2023-05-20T05:17:27;100716.03;;;16.23;100.00
46347;BME280;32057;47.830;19.046;2023-05-20T05:19:53;100712.56;;;16.32;100.00
46347;BME280;32057;47.830;19.046;2023-05-20T05:22:18;100729.22;;;16.34;100.00
46347;BME280;32057;47.830;19.046;2023-05-20T05:24:44;100725.72;;;16.37;100.00
46347;BME280;32057;47.830;19.046;2023-05-20T05:27:09;100723.13;;;16.46;100.00
46347;BME280;32057;47.830;19.046;2023-05-20T05:29:35;100717.00;;;16.51;100.00
46347;BME280;32057;47.830;19.046;2023-05-20T05:32:00;100720.53;;;16.60;100.00
46347;BME280;32057;47.830;19.046;2023-05-20T05:34:26;100719.66;;;16.68;100.00
46347;BME280;32057;47.830;19.046;2023-05-20T05:36:51;100722.28;;;16.73;100.00
46347;BME280;32057;47.830;19.046;2023-05-20T05:39:17;100715.25;;;16.75;100.00
46347;BME280;32057;47.830;19.046;2023-05-20T05:41:42;100710.94;;;16.83;100.00
46347;BME280;32057;47.830;19.046;2023-05-20T05:44:07;100713.56;;;16.86;100.00
46347;BME280;32057;47.830;19.046;2023-05-20T05:46:33;100709.19;;;16.96;100.00
46347;BME280;32057;47.830;19.046;2023-05-20T05:48:58;100718.81;;;17.03;100.00
46347;BME280;32057;47.830;19.046;2023-05-20T05:51:25;100728.47;;;17.09;100.00
46347;BME280;32057;47.830;19.046;2023-05-20T05:53:52;100732.84;;;17.16;100.00
46347;BME280;32057;47.830;19.046;2023-05-20T05:56:18;100738.09;;;17.19;100.00
46347;BME280;32057;47.830;19.046;2023-05-20T05:58:43;100731.09;;;17.30;100.00
46347;BME280;32057;47.830;19.046;2023-05-20T06:01:09;100729.31;;;17.39;100.00
46347;BME280;32057;47.830;19.046;2023-05-20T06:03:35;100724.03;;;17.57;100.00
46347;BME280;32057;47.830;19.046;2023-05-20T06:06:00;100716.09;;;17.72;100.00
46347;BME280;32057;47.830;19.046;2023-05-20T06:08:25;100724.88;;;17.85;100.00
46347;BME280;32057;47.830;19.046;2023-05-20T06:10:51;100729.25;;;17.85;100.00
46347;BME280;32057;47.830;19.046;2023-05-20T06:13:17;100736.25;;;17.97;100.00
46347;BME280;32057;47.830;19.046;2023-05-20T06:15:42;100728.31;;;18.03;100.00
46347;BME280;32057;47.830;19.046;2023-05-20T06:18:10;100736.22;;;18.07;100.00
46347;BME280;32057;47.830;19.046;2023-05-20T06:20:35;100737.06;;;18.13;100.00
46347;BME280;32057;47.830;19.046;2023-05-20T06:23:01;100736.16;;;18.17;100.00
46347;BME280;32057;47.830;19.046;2023-05-20T06:25:26;100730.00;;;18.19;100.00
46347;BME280;32057;47.830;19.046;2023-05-20T06:27:52;100733.50;;;18.24;100.00
46347;BME280;32057;47.830;19.046;2023-05-20T06:30:17;100736.06;;;18.38;100.00
46347;BME280;32057;47.830;19.046;2023-05-20T06:32:43;100730.75;;;18.44;100.00
46347;BME280;32057;47.830;19.046;2023-05-20T06:35:08;100728.91;;;18.59;100.00
46347;BME280;32057;47.830;19.046;2023-05-20T06:37:34;100726.28;;;18.62;100.00
46347;BME280;32057;47.830;19.046;2023-05-20T06:39:59;100734.97;;;18.73;100.00
46347;BME280;32057;47.830;19.046;2023-05-20T06:42:25;100729.66;;;18.82;100.00
46347;BME280;32057;47.830;19.046;2023-05-20T06:44:50;100731.34;;;18.94;100.00
46347;BME280;32057;47.830;19.046;2023-05-20T06:47:16;100729.72;;;18.70;100.00
46347;BME280;32057;47.830;19.046;2023-05-20T06:49:43;100724.53;;;18.56;100.00
46347;BME280;32057;47.830;19.046;2023-05-20T06:52:08;100732.41;;;18.64;100.00
46347;BME280;32057;47.830;19.046;2023-05-20T06:54:34;100735.94;;;18.60;100.00
46347;BME280;32057;47.830;19.046;2023-05-20T06:57:05;100731.53;;;18.59;100.00
46347;BME280;32057;47.830;19.046;2023-05-20T06:59:30;100727.94;;;18.81;100.00
46347;BME280;32057;47.830;19.046;2023-05-20T07:01:56;100726.00;;;19.02;100.00
46347;BME280;32057;47.830;19.046;2023-05-20T07:04:21;100719.66;;;19.23;100.00
46347;BME280;32057;47.830;19.046;2023-05-20T07:06:47;100716.69;;;19.58;100.00
46347;BME280;32057;47.830;19.046;2023-05-20T07:09:12;100703.22;;;19.83;100.00
46347;BME280;32057;47.830;19.046;2023-05-20T07:11:37;100703.13;;;19.92;100.00
46347;BME280;32057;47.830;19.046;2023-05-20T07:14:03;100700.22;;;20.15;100.00
46347;BME280;32057;47.830;19.046;2023-05-20T07:16:29;100693.84;;;20.30;100.00
46347;BME280;32057;47.830;19.046;2023-05-20T07:18:56;100696.38;;;20.38;97.48
46347;BME280;32057;47.830;19.046;2023-05-20T07:21:21;100696.31;;;20.42;94.35
46347;BME280;32057;47.830;19.046;2023-05-20T07:23:47;100686.44;;;20.54;100.00
46347;BME280;32057;47.830;19.046;2023-05-20T07:26:12;100690.63;;;20.72;100.00
46347;BME280;32057;47.830;19.046;2023-05-20T07:28:38;100688.53;;;20.91;99.34
46347;BME280;32057;47.830;19.046;2023-05-20T07:31:03;100697.91;;;21.10;96.25
46347;BME280;32057;47.830;19.046;2023-05-20T07:33:29;100687.06;;;21.25;94.31
46347;BME280;32057;47.830;19.046;2023-05-20T07:35:54;100691.50;;;21.25;95.64
46347;BME280;32057;47.830;19.046;2023-05-20T07:38:20;100690.38;;;21.37;95.23
46347;BME280;32057;47.830;19.046;2023-05-20T07:40:45;100696.47;;;21.43;93.93
46347;BME280;32057;47.830;19.046;2023-05-20T07:43:10;100691.00;;;21.53;97.57
46347;BME280;32057;47.830;19.046;2023-05-20T07:45:36;100687.66;;;21.43;92.93
46347;BME280;32057;47.830;19.046;2023-05-20T07:48:03;100683.22;;;21.45;91.47
46347;BME280;32057;47.830;19.046;2023-05-20T07:50:28;100687.09;;;21.71;97.08
46347;BME280;32057;47.830;19.046;2023-05-20T07:52:54;100686.88;;;21.83;95.93
46347;BME280;32057;47.830;19.046;2023-05-20T07:55:19;100687.59;;;21.91;92.05
46347;BME280;32057;47.830;19.046;2023-05-20T07:57:45;100685.03;;;21.86;88.42
46347;BME280;32057;47.830;19.046;2023-05-20T08:00:11;100693.66;;;21.96;88.78
46347;BME280;32057;47.830;19.046;2023-05-20T08:02:38;100687.00;;;22.19;95.68
46347;BME280;32057;47.830;19.046;2023-05-20T08:05:04;100684.19;;;22.26;92.35
46347;BME280;32057;47.830;19.046;2023-05-20T08:07:29;100678.66;;;22.39;88.00
46347;BME280;32057;47.830;19.046;2023-05-20T08:09:56;100677.41;;;22.54;89.80
46347;BME280;32057;47.830;19.046;2023-05-20T08:12:21;100671.09;;;22.19;81.45
46347;BME280;32057;47.830;19.046;2023-05-20T08:14:47;100668.84;;;22.00;81.35
46347;BME280;32057;47.830;19.046;2023-05-20T08:17:12;100665.69;;;22.25;87.29
46347;BME280;32057;47.830;19.046;2023-05-20T08:19:38;100673.84;;;22.55;90.20
46347;BME280;32057;47.830;19.046;2023-05-20T08:22:03;100662.94;;;22.67;83.60
46347;BME280;32057;47.830;19.046;2023-05-20T08:24:30;100653.72;;;22.82;86.06
46347;BME280;32057;47.830;19.046;2023-05-20T08:26:56;100653.06;;;22.74;82.79
46347;BME280;32057;47.830;19.046;2023-05-20T08:29:21;100660.03;;;22.78;80.85
46347;BME280;32057;47.830;19.046;2023-05-20T08:31:47;100662.41;;;22.89;82.58
46347;BME280;32057;47.830;19.046;2023-05-20T08:34:12;100655.91;;;23.02;85.60
46347;BME280;32057;47.830;19.046;2023-05-20T08:36:38;100659.88;;;23.18;83.93
46347;BME280;32057;47.830;19.046;2023-05-20T08:39:04;100651.44;;;23.04;79.45
46347;BME280;32057;47.830;19.046;2023-05-20T08:41:29;100650.94;;;23.22;90.45
46347;BME280;32057;47.830;19.046;2023-05-20T08:43:56;100646.88;;;23.09;81.13
46347;BME280;32057;47.830;19.046;2023-05-20T08:46:24;100645.38;;;23.32;80.87
46347;BME280;32057;47.830;19.046;2023-05-20T08:48:49;100642.53;;;23.39;84.41
46347;BME280;32057;47.830;19.046;2023-05-20T08:51:17;100643.94;;;23.53;83.40
46347;BME280;32057;47.830;19.046;2023-05-20T08:53:45;100645.28;;;23.66;83.38
46347;BME280;32057;47.830;19.046;2023-05-20T08:56:11;100645.00;;;23.77;84.66
46347;BME280;32057;47.830;19.046;2023-05-20T08:58:37;100637.31;;;23.66;80.99
46347;BME280;32057;47.830;19.046;2023-05-20T09:01:02;100640.06;;;23.64;77.73
46347;BME280;32057;47.830;19.046;2023-05-20T09:03:28;100633.63;;;23.72;80.39
46347;BME280;32057;47.830;19.046;2023-05-20T09:06:03;100633.47;;;23.78;82.63
46347;BME280;32057;47.830;19.046;2023-05-20T09:08:29;100622.81;;;23.79;79.60
46347;BME280;32057;47.830;19.046;2023-05-20T09:10:55;100620.78;;;23.88;77.34
46347;BME280;32057;47.830;19.046;2023-05-20T09:13:23;100624.28;;;23.90;80.52
46347;BME280;32057;47.830;19.046;2023-05-20T09:15:48;100621.00;;;23.80;81.79
46347;BME280;32057;47.830;19.046;2023-05-20T09:18:14;100619.97;;;23.85;77.03
46347;BME280;32057;47.830;19.046;2023-05-20T09:20:40;100622.84;;;24.08;83.33
46347;BME280;32057;47.830;19.046;2023-05-20T09:23:07;100624.53;;;24.10;71.22
46347;BME280;32057;47.830;19.046;2023-05-20T09:25:34;100614.78;;;24.11;72.78
46347;BME280;32057;47.830;19.046;2023-05-20T09:28:01;100622.38;;;24.23;81.08
46347;BME280;32057;47.830;19.046;2023-05-20T09:30:28;100625.84;;;24.25;78.56
46347;BME280;32057;47.830;19.046;2023-05-20T09:32:54;100621.34;;;24.27;81.28
46347;BME280;32057;47.830;19.046;2023-05-20T09:35:21;100619.59;;;24.26;74.59
46347;BME280;32057;47.830;19.046;2023-05-20T09:37:49;100605.28;;;24.30;77.99
46347;BME280;32057;47.830;19.046;2023-05-20T09:40:16;100608.47;;;24.41;69.47
46347;BME280;32057;47.830;19.046;2023-05-20T09:43:04;100607.13;;;24.28;69.15
46347;BME280;32057;47.830;19.046;2023-05-20T09:45:35;100608.63;;;24.37;69.90
46347;BME280;32057;47.830;19.046;2023-05-20T09:48:01;100605.06;;;24.36;70.56
46347;BME280;32057;47.830;19.046;2023-05-20T09:50:28;100587.44;;;24.34;67.78
46347;BME280;32057;47.830;19.046;2023-05-20T09:52:54;100592.47;;;24.43;69.02
46347;BME280;32057;47.830;19.046;2023-05-20T09:55:22;100595.72;;;24.53;71.92
46347;BME280;32057;47.830;19.046;2023-05-20T09:57:48;100588.00;;;24.43;65.73
46347;BME280;32057;47.830;19.046;2023-05-20T10:00:15;100587.75;;;24.53;68.99
46347;BME280;32057;47.830;19.046;2023-05-20T10:02:45;100578.69;;;24.58;67.84
46347;BME280;32057;47.830;19.046;2023-05-20T10:05:41;100581.50;;;24.54;63.18
46347;BME280;32057;47.830;19.046;2023-05-20T10:13:34;100572.19;;;24.67;60.81
46347;BME280;32057;47.830;19.046;2023-05-20T10:21:33;100557.41;;;24.83;67.86
46347;BME280;32057;47.830;19.046;2023-05-20T10:24:06;100549.44;;;24.83;70.18
46347;BME280;32057;47.830;19.046;2023-05-20T10:26:36;100543.34;;;24.80;60.91
46347;BME280;32057;47.830;19.046;2023-05-20T10:29:16;100553.72;;;24.88;66.12
46347;BME280;32057;47.830;19.046;2023-05-20T10:31:49;100537.78;;;24.86;61.41
46347;BME280;32057;47.830;19.046;2023-05-20T10:34:16;100544.38;;;25.01;59.57
46347;BME280;32057;47.830;19.046;2023-05-20T10:37:00;100545.59;;;25.16;61.54
46347;BME280;32057;47.830;19.046;2023-05-20T10:39:30;100537.41;;;25.22;59.25
46347;BME280;32057;47.830;19.046;2023-05-20T10:42:09;100538.06;;;25.29;64.75
46347;BME280;32057;47.830;19.046;2023-05-20T10:44:53;100537.31;;;25.25;59.60
46347;BME280;32057;47.830;19.046;2023-05-20T10:47:19;100534.13;;;25.14;58.90
46347;BME280;32057;47.830;19.046;2023-05-20T10:49:44;100523.66;;;25.09;57.33
46347;BME280;32057;47.830;19.046;2023-05-20T10:52:12;100526.34;;;24.84;58.62
46347;BME280;32057;47.830;19.046;2023-05-20T10:57:19;100523.91;;;25.03;60.54
46347;BME280;32057;47.830;19.046;2023-05-20T10:59:45;100522.00;;;25.07;60.04
46347;BME280;32057;47.830;19.046;2023-05-20T11:02:14;100517.06;;;25.19;58.40
46347;BME280;32057;47.830;19.046;2023-05-20T11:04:41;100516.09;;;25.22;58.87
46347;BME280;32057;47.830;19.046;2023-05-20T11:07:07;100512.31;;;25.29;61.26
46347;BME280;32057;47.830;19.046;2023-05-20T11:09:33;100500.88;;;25.26;58.07
46347;BME280;32057;47.830;19.046;2023-05-20T11:11:59;100494.84;;;25.20;54.50
46347;BME280;32057;47.830;19.046;2023-05-20T11:14:27;100498.78;;;25.34;62.70
46347;BME280;32057;47.830;19.046;2023-05-20T11:16:55;100490.00;;;25.32;59.34
46347;BME280;32057;47.830;19.046;2023-05-20T11:19:21;100480.91;;;25.37;63.46
46347;BME280;32057;47.830;19.046;2023-05-20T11:21:47;100478.63;;;25.50;59.27
46347;BME280;32057;47.830;19.046;2023-05-20T11:24:16;100480.94;;;25.59;64.50
46347;BME280;32057;47.830;19.046;2023-05-20T11:26:46;100491.00;;;25.75;61.89
46347;BME280;32057;47.830;19.046;2023-05-20T11:29:11;100483.50;;;25.62;58.14
46347;BME280;32057;47.830;19.046;2023-05-20T11:31:37;100480.03;;;25.60;62.34
46347;BME280;32057;47.830;19.046;2023-05-20T11:34:03;100482.00;;;25.55;59.78
46347;BME280;32057;47.830;19.046;2023-05-20T11:36:29;100478.41;;;25.56;58.07
46347;BME280;32057;47.830;19.046;2023-05-20T11:38:58;100486.66;;;25.72;66.82
46347;BME280;32057;47.830;19.046;2023-05-20T11:41:25;100487.47;;;25.74;61.80
46347;BME280;32057;47.830;19.046;2023-05-20T11:43:59;100477.47;;;25.79;65.82
46347;BME280;32057;47.830;19.046;2023-05-20T11:46:25;100483.34;;;25.88;61.41
46347;BME280;32057;47.830;19.046;2023-05-20T11:48:52;100478.88;;;25.88;66.17
46347;BME280;32057;47.830;19.046;2023-05-20T11:51:27;100477.88;;;25.92;56.01
46347;BME280;32057;47.830;19.046;2023-05-20T11:53:59;100474.34;;;25.92;60.56
46347;BME280;32057;47.830;19.046;2023-05-20T11:56:27;100474.06;;;25.98;63.04
46347;BME280;32057;47.830;19.046;2023-05-20T11:58:56;100470.97;;;25.87;62.00
46347;BME280;32057;47.830;19.046;2023-05-20T12:01:21;100476.63;;;26.01;52.04
46347;BME280;32057;47.830;19.046;2023-05-20T12:03:47;100485.22;;;25.86;56.65
46347;BME280;32057;47.830;19.046;2023-05-20T12:06:12;100480.88;;;25.83;59.63
46347;BME280;32057;47.830;19.046;2023-05-20T12:08:38;100476.34;;;25.63;59.27
46347;BME280;32057;47.830;19.046;2023-05-20T12:11:03;100467.59;;;25.59;62.20
46347;BME280;32057;47.830;19.046;2023-05-20T12:13:29;100475.81;;;25.77;65.15
46347;BME280;32057;47.830;19.046;2023-05-20T12:15:54;100475.06;;;25.73;54.77
46347;BME280;32057;47.830;19.046;2023-05-20T12:18:20;100475.56;;;25.83;57.16
46347;BME280;32057;47.830;19.046;2023-05-20T12:20:46;100473.50;;;25.68;54.77
46347;BME280;32057;47.830;19.046;2023-05-20T12:23:11;100471.69;;;25.68;54.86
46347;BME280;32057;47.830;19.046;2023-05-20T12:25:37;100461.09;;;25.90;62.86
46347;BME280;32057;47.830;19.046;2023-05-20T12:28:02;100469.75;;;25.95;56.38
46347;BME280;32057;47.830;19.046;2023-05-20T12:30:28;100460.84;;;25.96;52.31
46347;BME280;32057;47.830;19.046;2023-05-20T12:32:53;100460.09;;;25.93;52.03
46347;BME280;32057;47.830;19.046;2023-05-20T12:35:25;100450.34;;;25.92;57.34
46347;BME280;32057;47.830;19.046;2023-05-20T12:38:00;100458.22;;;25.95;58.74
46347;BME280;32057;47.830;19.046;2023-05-20T12:40:25;100460.16;;;25.90;55.96
46347;BME280;32057;47.830;19.046;2023-05-20T12:42:51;100466.50;;;25.87;57.11